createdAt,value
2017-06-04T06:51:21.356Z,6064
2017-06-04T06:52:01.882Z,6424
2017-06-04T06:52:42.424Z,6192
2017-06-04T06:53:22.963Z,6504
2017-06-04T06:54:03.511Z,5620
2017-06-04T06:54:44.035Z,5816
2017-06-04T06:55:24.571Z,5548
2017-06-04T06:56:05.109Z,4976
2017-06-04T06:56:45.652Z,5732
2017-06-04T06:57:26.185Z,5024
2017-06-04T06:58:06.721Z,4556
2017-06-04T06:58:47.253Z,4488
2017-06-04T06:59:27.800Z,5144
2017-06-04T07:00:08.343Z,5640
2017-06-04T07:00:48.889Z,6612
2017-06-04T07:01:29.418Z,5488
2017-06-04T07:02:09.961Z,4844
2017-06-04T07:02:50.496Z,4544
2017-06-04T07:03:31.042Z,5692
2017-06-04T07:04:11.574Z,6068
2017-06-04T07:04:52.113Z,4928
2017-06-04T07:05:32.661Z,3668
2017-06-04T07:06:13.198Z,2724
2017-06-04T07:06:53.754Z,2852
2017-06-04T07:07:34.301Z,4064
2017-06-04T07:08:14.827Z,3944
2017-06-04T07:08:55.373Z,2716
2017-06-04T07:09:35.922Z,2128
2017-06-04T07:10:16.464Z,2256
2017-06-04T07:10:57.029Z,2868
2017-06-04T07:11:37.513Z,3672
2017-06-04T07:12:18.058Z,3680
2017-06-04T07:12:58.601Z,4196
2017-06-04T07:13:39.142Z,5064
2017-06-04T07:14:19.658Z,4488
2017-06-04T07:15:00.196Z,3608
2017-06-04T07:15:40.733Z,3740
2017-06-04T07:16:21.275Z,4508
2017-06-04T07:17:01.811Z,5540
2017-06-04T07:17:42.352Z,7228
2017-06-04T07:18:22.885Z,8584
2017-06-04T07:19:03.427Z,9736
2017-06-04T07:19:43.966Z,8448
2017-06-04T07:20:24.509Z,7304
2017-06-04T07:21:05.042Z,8512
2017-06-04T07:21:45.590Z,8324
2017-06-04T07:22:26.121Z,8564
2017-06-04T07:23:06.665Z,7492
2017-06-04T07:23:47.190Z,5572
2017-06-04T07:24:27.734Z,5284
2017-06-04T07:25:08.263Z,5864
2017-06-04T07:25:48.812Z,6608
2017-06-04T07:26:29.352Z,8772
2017-06-04T07:27:09.896Z,8528
2017-06-04T07:27:50.441Z,7604
2017-06-04T07:28:30.985Z,7276
2017-06-04T07:29:11.525Z,7992
2017-06-04T07:29:52.072Z,7304
2017-06-04T07:30:32.620Z,7480
2017-06-04T07:31:13.170Z,9640
2017-06-04T07:31:53.715Z,9984
2017-06-04T07:32:34.248Z,9912
2017-06-04T07:33:14.792Z,8932
2017-06-04T07:33:55.321Z,8292
2017-06-04T07:34:35.849Z,9072
2017-06-04T07:35:16.385Z,8340
2017-06-04T07:35:56.930Z,7860
2017-06-04T07:36:37.469Z,8284
2017-06-04T07:37:17.996Z,8572
2017-06-04T07:37:58.545Z,8172
2017-06-04T07:38:39.086Z,8212
2017-06-04T07:39:19.629Z,8280
2017-06-04T07:40:00.175Z,9420
2017-06-04T07:40:40.704Z,6300
2017-06-04T07:41:21.228Z,5292
2017-06-04T07:42:01.776Z,5900
2017-06-04T07:42:42.325Z,9692
2017-06-04T07:43:22.870Z,9504
2017-06-04T07:44:03.408Z,9192
2017-06-04T07:44:43.945Z,7648
2017-06-04T07:45:24.488Z,6620
2017-06-04T07:46:05.025Z,7080
2017-06-04T07:46:45.548Z,7632
2017-06-04T07:47:26.102Z,7536
2017-06-04T07:48:06.650Z,6252
2017-06-04T07:48:47.201Z,6292
2017-06-04T07:49:27.741Z,5396
2017-06-04T07:50:08.291Z,5260
2017-06-04T07:50:48.842Z,5860
2017-06-04T07:51:29.391Z,7944
2017-06-04T07:52:09.918Z,8924
2017-06-04T07:52:50.462Z,12064
2017-06-04T07:53:30.995Z,14172
2017-06-04T07:54:11.533Z,10756
2017-06-04T07:54:52.095Z,7936
2017-06-04T07:55:32.643Z,6312
2017-06-04T07:56:13.165Z,5372
2017-06-04T07:56:53.710Z,5136
2017-06-04T07:57:34.251Z,5600
2017-06-04T07:58:14.806Z,6808
2017-06-04T07:58:55.309Z,6924
2017-06-04T07:59:35.850Z,7068
2017-06-04T08:00:16.378Z,10280
2017-06-04T08:00:56.912Z,13524
2017-06-04T08:01:37.458Z,15356
2017-06-04T08:02:18.008Z,11676
2017-06-04T08:02:58.548Z,8520
2017-06-04T08:03:39.088Z,5960
2017-06-04T08:04:19.626Z,5648
2017-06-04T08:05:00.170Z,5572
2017-06-04T08:05:40.701Z,5476
2017-06-04T08:06:21.234Z,5700
2017-06-04T08:07:01.770Z,7388
2017-06-04T08:07:42.307Z,8160
2017-06-04T08:08:22.847Z,10392
2017-06-04T08:09:03.372Z,41408
2017-06-04T08:09:43.904Z,20960
2017-06-04T08:10:24.425Z,7004
2017-06-04T08:11:04.973Z,5224
2017-06-04T08:11:45.511Z,5136
2017-06-04T08:12:26.056Z,6188
2017-06-04T08:13:06.604Z,5228
2017-06-04T08:13:47.147Z,4396
2017-06-04T08:14:27.689Z,4168
2017-06-04T08:15:08.226Z,3784
2017-06-04T08:15:48.752Z,3052
2017-06-04T08:16:29.290Z,2620
2017-06-04T08:17:09.853Z,2304
2017-06-04T08:17:50.397Z,2104
2017-06-04T08:18:30.959Z,2120
2017-06-04T08:19:11.475Z,2400
2017-06-04T08:19:52.023Z,2540
2017-06-04T08:20:32.567Z,2436
2017-06-04T08:21:13.121Z,2488
2017-06-04T08:21:53.662Z,2408
2017-06-04T08:22:34.229Z,2364
2017-06-04T08:23:14.765Z,2500
2017-06-04T08:23:55.307Z,2832
2017-06-04T08:24:35.839Z,3120
2017-06-04T08:25:16.381Z,3572
2017-06-04T08:25:56.913Z,4568
2017-06-04T08:26:37.448Z,6736
2017-06-04T08:27:17.976Z,9700
2017-06-04T08:27:58.512Z,73920
2017-06-04T08:28:39.056Z,74016
2017-06-04T08:29:19.593Z,70752
2017-06-04T08:30:00.131Z,73568
2017-06-04T08:30:40.673Z,77920
2017-06-04T08:31:21.203Z,77632
2017-06-04T08:32:01.733Z,77056
2017-06-04T08:32:42.269Z,35968
2017-06-04T08:33:22.806Z,15312
2017-06-04T08:34:03.352Z,53824
2017-06-04T08:34:43.864Z,17448
2017-06-04T08:35:24.414Z,9608
2017-06-04T08:36:04.956Z,8296
2017-06-04T08:36:45.497Z,30816
2017-06-04T08:37:26.043Z,73344
2017-06-04T08:38:06.586Z,11556
2017-06-04T08:38:47.129Z,56672
2017-06-04T08:39:27.674Z,81056
2017-06-04T08:40:08.217Z,79552
2017-06-04T08:40:48.769Z,78560
2017-06-04T08:41:29.310Z,79936
2017-06-04T08:42:09.847Z,81056
2017-06-04T08:42:50.386Z,80320
2017-06-04T08:43:30.915Z,81216
2017-06-04T08:44:11.450Z,80128
2017-06-04T08:44:51.996Z,77504
2017-06-04T08:45:32.536Z,77472
2017-06-04T08:46:13.077Z,77824
2017-06-04T08:46:53.612Z,84672
2017-06-04T08:47:34.143Z,82080
2017-06-04T08:48:14.675Z,76864
2017-06-04T08:48:55.233Z,58688
2017-06-04T08:49:35.769Z,55488
2017-06-04T08:50:16.322Z,6804
2017-06-04T08:50:56.862Z,6816
2017-06-04T08:51:37.403Z,7948
2017-06-04T08:52:17.952Z,10816
2017-06-04T08:52:58.501Z,49760
2017-06-04T08:53:39.029Z,14112
2017-06-04T08:54:19.575Z,44864
2017-06-04T08:55:00.132Z,38784
2017-06-04T08:55:40.668Z,14388
2017-06-04T08:56:21.221Z,19392
2017-06-04T08:57:01.781Z,17396
2017-06-04T08:57:42.337Z,14540
2017-06-04T08:58:22.889Z,13280
2017-06-04T08:59:03.437Z,15440
2017-06-04T08:59:43.964Z,14636
2017-06-04T09:00:24.837Z,14768
2017-06-04T09:01:05.813Z,14436
2017-06-04T09:01:46.359Z,13332
2017-06-04T09:02:26.907Z,13572
2017-06-04T09:03:07.451Z,11300
2017-06-04T09:03:47.988Z,14676
2017-06-04T09:04:28.519Z,16584
2017-06-04T09:05:09.045Z,14556
2017-06-04T09:05:49.673Z,9136
2017-06-04T09:06:30.228Z,6532
2017-06-04T09:07:10.766Z,6696
2017-06-04T09:07:51.297Z,9964
2017-06-04T09:08:31.835Z,17600
2017-06-04T09:09:12.376Z,18912
2017-06-04T09:09:52.902Z,17024
2017-06-04T09:10:33.442Z,12400
2017-06-04T09:11:13.986Z,12096
2017-06-04T09:11:54.510Z,13680
2017-06-04T09:12:35.055Z,12892
2017-06-04T09:13:15.654Z,12460
2017-06-04T09:13:56.195Z,14196
2017-06-04T09:14:36.730Z,14976
2017-06-04T09:15:17.255Z,15944
2017-06-04T09:15:57.791Z,16408
2017-06-04T09:16:38.325Z,12860
2017-06-04T09:17:18.867Z,11364
2017-06-04T09:17:59.404Z,11792
2017-06-04T09:18:39.971Z,10648
2017-06-04T09:19:20.515Z,9208
2017-06-04T09:20:01.064Z,11884
2017-06-04T09:20:41.604Z,10140
2017-06-04T09:21:22.159Z,10992
2017-06-04T09:22:02.694Z,7996
2017-06-04T09:22:43.223Z,9156
2017-06-04T09:23:23.762Z,12792
2017-06-04T09:24:04.299Z,13360
2017-06-04T09:24:44.831Z,13200
2017-06-04T09:25:25.367Z,13924
2017-06-04T09:26:05.912Z,7964
2017-06-04T09:26:46.457Z,6240
2017-06-04T09:27:26.999Z,6188
2017-06-04T09:28:07.533Z,5804
2017-06-04T09:28:48.074Z,5940
2017-06-04T09:29:28.616Z,6708
2017-06-04T09:30:09.158Z,9740
2017-06-04T09:30:49.705Z,10324
2017-06-04T09:31:30.254Z,12092
2017-06-04T09:32:10.795Z,15048
2017-06-04T09:32:51.328Z,28384
2017-06-04T09:33:31.862Z,31424
2017-06-04T09:34:12.405Z,59296
2017-06-04T09:34:52.944Z,7836
2017-06-04T09:35:33.474Z,8256
2017-06-04T09:36:14.013Z,9596
2017-06-04T09:36:54.542Z,17440
2017-06-04T09:37:35.080Z,9692
2017-06-04T09:38:15.616Z,9592
2017-06-04T09:38:56.151Z,12056
2017-06-04T09:39:36.695Z,13444
2017-06-04T09:40:17.235Z,12108
2017-06-04T09:40:57.784Z,13984
2017-06-04T09:41:38.329Z,26240
2017-06-04T09:42:18.869Z,46240
2017-06-04T09:42:59.401Z,31136
2017-06-04T09:43:39.944Z,20352
2017-06-04T09:44:20.489Z,86208
2017-06-04T09:45:01.036Z,35936
2017-06-04T09:45:41.578Z,60640
2017-06-04T09:46:22.125Z,86112
2017-06-04T09:47:02.644Z,87328
2017-06-04T09:47:43.170Z,90080
2017-06-04T09:48:23.709Z,49664
2017-06-04T09:49:04.249Z,11152
2017-06-04T09:49:44.788Z,85600
2017-06-04T09:50:25.323Z,12628
2017-06-04T09:51:05.873Z,102080
2017-06-04T09:51:46.413Z,92192
2017-06-04T09:52:26.954Z,93536
2017-06-04T09:53:07.492Z,24640
2017-06-04T09:53:48.003Z,105472
2017-06-04T09:54:28.579Z,91232
2017-06-04T09:55:09.120Z,91168
2017-06-04T09:55:49.652Z,14184
2017-06-04T09:56:30.196Z,90528
2017-06-04T09:57:10.743Z,79360
2017-06-04T09:57:51.289Z,10060
2017-06-04T09:58:31.833Z,11724
2017-06-04T09:59:12.388Z,10604
2017-06-04T09:59:52.926Z,18784
2017-06-04T10:00:33.462Z,7796
2017-06-04T10:01:14.006Z,7396
2017-06-04T10:01:54.536Z,8884
2017-06-04T10:02:35.089Z,95328
2017-06-04T10:03:15.637Z,86848
2017-06-04T10:03:56.199Z,55168
2017-06-04T10:04:36.750Z,63616
2017-06-04T10:05:17.293Z,94304
2017-06-04T10:05:57.831Z,84960
2017-06-04T10:06:38.377Z,88192
2017-06-04T10:07:18.922Z,95520
2017-06-04T10:07:59.471Z,97792
2017-06-04T10:08:40.011Z,93792
2017-06-04T10:09:20.560Z,75168
2017-06-04T10:10:01.109Z,14744
2017-06-04T10:10:41.656Z,11668
2017-06-04T10:11:22.201Z,12312
2017-06-04T10:12:02.752Z,97344
2017-06-04T10:12:43.287Z,91008
2017-06-04T10:13:23.836Z,95456
2017-06-04T10:14:04.383Z,94240
2017-06-04T10:14:44.934Z,86560
2017-06-04T10:15:25.487Z,76096
2017-06-04T10:16:06.035Z,63040
2017-06-04T10:16:46.588Z,55904
2017-06-04T10:17:27.139Z,52544
2017-06-04T10:18:07.681Z,48256
2017-06-04T10:18:48.236Z,40192
2017-06-04T10:19:28.778Z,32576
2017-06-04T10:20:09.329Z,26304
2017-06-04T10:20:49.857Z,21600
2017-06-04T10:21:30.398Z,20896
2017-06-04T10:22:10.951Z,14592
2017-06-04T10:22:51.500Z,16196
2017-06-04T10:23:32.052Z,14772
2017-06-04T10:24:12.602Z,15700
2017-06-04T10:24:53.147Z,14272
2017-06-04T10:25:33.697Z,13552
2017-06-04T10:26:14.253Z,12940
2017-06-04T10:26:54.801Z,12980
2017-06-04T10:27:35.349Z,13532
2017-06-04T10:28:15.895Z,15080
2017-06-04T10:28:56.458Z,13184
2017-06-04T10:29:36.998Z,13468
2017-06-04T10:30:17.523Z,15288
2017-06-04T10:30:58.069Z,10700
2017-06-04T10:31:38.616Z,7340
2017-06-04T10:32:19.169Z,15200
2017-06-04T10:32:59.708Z,15604
2017-06-04T10:33:40.249Z,14680
2017-06-04T10:34:20.797Z,13840
2017-06-04T10:35:01.333Z,10984
2017-06-04T10:35:41.898Z,7908
2017-06-04T10:36:22.417Z,7724
2017-06-04T10:37:02.961Z,10432
2017-06-04T10:37:43.505Z,6536
2017-06-04T10:38:24.048Z,6388
2017-06-04T10:39:04.598Z,5892
2017-06-04T10:39:45.147Z,6000
2017-06-04T10:40:25.687Z,6064
2017-06-04T10:41:06.228Z,7952
2017-06-04T10:41:46.777Z,14312
2017-06-04T10:42:27.326Z,38816
2017-06-04T10:43:07.856Z,59360
2017-06-04T10:43:48.403Z,78016
2017-06-04T10:44:28.942Z,89856
2017-06-04T10:45:09.489Z,100064
2017-06-04T10:45:50.025Z,104928
2017-06-04T10:46:30.575Z,108416
2017-06-04T10:47:11.117Z,107584
2017-06-04T10:47:51.662Z,104256
2017-06-04T10:48:32.206Z,102560
2017-06-04T10:49:12.748Z,104448
2017-06-04T10:49:53.300Z,7800
2017-06-04T10:50:33.848Z,107200
2017-06-04T10:51:14.407Z,22784
2017-06-04T10:51:54.954Z,100832
2017-06-04T10:52:35.508Z,8900
2017-06-04T10:53:16.057Z,7624
2017-06-04T10:53:56.604Z,7284
2017-06-04T10:54:37.152Z,110464
2017-06-04T10:55:17.704Z,107712
2017-06-04T10:55:58.260Z,108000
2017-06-04T10:56:38.808Z,85088
2017-06-04T10:57:19.360Z,45568
2017-06-04T10:57:59.908Z,15624
2017-06-04T10:58:40.475Z,32960
2017-06-04T10:59:20.995Z,98208
2017-06-04T11:00:01.546Z,87584
2017-06-04T11:00:42.087Z,99264
2017-06-04T11:01:22.626Z,98272
2017-06-04T11:02:03.154Z,87040
2017-06-04T11:02:43.686Z,67392
2017-06-04T11:03:24.225Z,50048
2017-06-04T11:04:04.776Z,20320
2017-06-04T11:04:45.326Z,14176
2017-06-04T11:05:25.926Z,9884
2017-06-04T11:06:06.497Z,11048
2017-06-04T11:06:47.041Z,18432
2017-06-04T11:07:27.599Z,19936
2017-06-04T11:08:08.142Z,16252
2017-06-04T11:08:48.712Z,14496
2017-06-04T11:09:29.264Z,17760
2017-06-04T11:10:09.808Z,16240
2017-06-04T11:10:50.350Z,10900
2017-06-04T11:11:30.891Z,15692
2017-06-04T11:12:11.446Z,15428
2017-06-04T11:12:51.992Z,15696
2017-06-04T11:13:32.536Z,12356
2017-06-04T11:14:13.072Z,14812
2017-06-04T11:14:53.622Z,19040
2017-06-04T11:15:34.150Z,20064
2017-06-04T11:16:14.702Z,17824
2017-06-04T11:16:55.254Z,15408
2017-06-04T11:17:35.804Z,16572
2017-06-04T11:18:16.346Z,9840
2017-06-04T11:18:56.876Z,11024
2017-06-04T11:19:37.434Z,10528
2017-06-04T11:20:17.987Z,16776
2017-06-04T11:20:58.536Z,19776
2017-06-04T11:21:39.088Z,15328
2017-06-04T11:22:19.645Z,19104
2017-06-04T11:23:00.187Z,19936
2017-06-04T11:23:40.734Z,30944
2017-06-04T11:24:21.296Z,34528
2017-06-04T11:25:01.846Z,27360
2017-06-04T11:25:42.407Z,7456
2017-06-04T11:26:22.949Z,7580
2017-06-04T11:27:03.498Z,9524
2017-06-04T11:27:44.046Z,10216
2017-06-04T11:28:24.590Z,110112
2017-06-04T11:29:05.120Z,94560
2017-06-04T11:29:45.667Z,110560
2017-06-04T11:30:26.217Z,107328
2017-06-04T11:31:06.777Z,105664
2017-06-04T11:31:47.322Z,105376
2017-06-04T11:32:27.844Z,107776
2017-06-04T11:33:08.385Z,107968
2017-06-04T11:33:48.969Z,108256
2017-06-04T11:34:29.520Z,103968
2017-06-04T11:35:10.071Z,103808
2017-06-04T11:35:50.618Z,108192
2017-06-04T11:36:31.137Z,60160
2017-06-04T11:37:11.671Z,49312
2017-06-04T11:37:52.219Z,106080
2017-06-04T11:38:32.764Z,105792
2017-06-04T11:39:13.311Z,107232
2017-06-04T11:39:53.861Z,113344
2017-06-04T11:40:34.415Z,108416
2017-06-04T11:41:14.954Z,90144
2017-06-04T11:41:55.499Z,68544
2017-06-04T11:42:36.050Z,53888
2017-06-04T11:43:16.586Z,38304
2017-06-04T11:43:57.141Z,26688
2017-06-04T11:44:37.676Z,19680
2017-06-04T11:45:18.231Z,16496
2017-06-04T11:45:58.767Z,16064
2017-06-04T11:46:39.301Z,15844
2017-06-04T11:47:19.846Z,15476
2017-06-04T11:48:00.394Z,15440
2017-06-04T11:48:40.940Z,15176
2017-06-04T11:49:21.474Z,15480
2017-06-04T11:50:02.025Z,15660
2017-06-04T11:50:42.574Z,15424
2017-06-04T11:51:23.124Z,15124
2017-06-04T11:52:03.676Z,15196
2017-06-04T11:52:44.224Z,16284
2017-06-04T11:53:24.769Z,17408
2017-06-04T11:54:05.314Z,17856
2017-06-04T11:54:45.858Z,9924
2017-06-04T11:55:26.402Z,12404
2017-06-04T11:56:06.992Z,20192
2017-06-04T11:56:47.530Z,19648
2017-06-04T11:57:28.078Z,18688
2017-06-04T11:58:08.625Z,17856
2017-06-04T11:58:49.167Z,16624
2017-06-04T11:59:29.720Z,15872
2017-06-04T12:00:10.261Z,15596
2017-06-04T12:00:50.823Z,15260
2017-06-04T12:01:31.374Z,15000
2017-06-04T12:02:11.920Z,15648
2017-06-04T12:02:52.467Z,16376
2017-06-04T12:03:33.020Z,16796
2017-06-04T12:04:13.568Z,16456
2017-06-04T12:04:54.105Z,15800
2017-06-04T12:05:34.655Z,15680
2017-06-04T12:06:15.206Z,15648
2017-06-04T12:06:55.756Z,15844
2017-06-04T12:07:36.299Z,16408
2017-06-04T12:08:16.838Z,17472
2017-06-04T12:08:57.389Z,18688
2017-06-04T12:09:38.001Z,19552
2017-06-04T12:10:18.546Z,19200
2017-06-04T12:10:59.090Z,19488
2017-06-04T12:11:39.619Z,18080
2017-06-04T12:12:20.174Z,7560
2017-06-04T12:13:00.721Z,7592
2017-06-04T12:13:41.269Z,6308
2017-06-04T12:14:21.814Z,7380
2017-06-04T12:15:02.361Z,18144
2017-06-04T12:15:42.897Z,20256
2017-06-04T12:16:23.435Z,20256
2017-06-04T12:17:03.978Z,18720
2017-06-04T12:17:44.524Z,17728
2017-06-04T12:18:25.065Z,17504
2017-06-04T12:19:05.602Z,17120
2017-06-04T12:19:46.154Z,17888
2017-06-04T12:20:26.706Z,12020
2017-06-04T12:21:07.257Z,18400
2017-06-04T12:21:47.802Z,8568
2017-06-04T12:22:28.331Z,9524
2017-06-04T12:23:08.889Z,20064
2017-06-04T12:23:49.432Z,20768
2017-06-04T12:24:29.983Z,19808
2017-06-04T12:25:10.529Z,19680
2017-06-04T12:25:51.055Z,19616
2017-06-04T12:26:31.599Z,19584
2017-06-04T12:27:12.149Z,20000
2017-06-04T12:27:52.686Z,20736
2017-06-04T12:28:33.237Z,19552
2017-06-04T12:29:13.773Z,15812
2017-06-04T12:29:54.316Z,19136
2017-06-04T12:30:34.857Z,19744
2017-06-04T12:31:15.401Z,14028
2017-06-04T12:31:55.951Z,8624
2017-06-04T12:32:36.501Z,7500
2017-06-04T12:33:17.051Z,10924
2017-06-04T12:33:57.598Z,11668
2017-06-04T12:34:38.138Z,19168
2017-06-04T12:35:18.682Z,19104
2017-06-04T12:35:59.226Z,18880
2017-06-04T12:36:39.761Z,18304
2017-06-04T12:37:20.288Z,18048
2017-06-04T12:38:00.836Z,17792
2017-06-04T12:38:41.378Z,18400
2017-06-04T12:39:21.928Z,18976
2017-06-04T12:40:02.481Z,19296
2017-06-04T12:40:43.055Z,20256
2017-06-04T12:41:23.572Z,17312
2017-06-04T12:42:04.124Z,19584
2017-06-04T12:42:44.671Z,19264
2017-06-04T12:43:25.224Z,18304
2017-06-04T12:44:05.769Z,17440
2017-06-04T12:44:46.305Z,16616
2017-06-04T12:45:26.852Z,16420
2017-06-04T12:46:07.403Z,16332
2017-06-04T12:46:47.942Z,16176
2017-06-04T12:47:28.492Z,15740
2017-06-04T12:48:09.030Z,16212
2017-06-04T12:48:49.566Z,16276
2017-06-04T12:49:30.110Z,16368
2017-06-04T12:50:10.654Z,16336
2017-06-04T12:50:51.195Z,16348
2017-06-04T12:51:31.750Z,16352
2017-06-04T12:52:12.311Z,16384
2017-06-04T12:52:52.852Z,16452
2017-06-04T12:53:33.394Z,16332
2017-06-04T12:54:13.923Z,15908
2017-06-04T12:54:54.466Z,15384
2017-06-04T12:55:35.003Z,6116
2017-06-04T12:56:15.552Z,6176
2017-06-04T12:56:56.104Z,16084
2017-06-04T12:57:36.650Z,16392
2017-06-04T12:58:17.192Z,16572
2017-06-04T12:58:57.731Z,16612
2017-06-04T12:59:38.277Z,16864
2017-06-04T13:00:18.823Z,17120
2017-06-04T13:00:59.368Z,17376
2017-06-04T13:01:39.908Z,17792
2017-06-04T13:02:20.455Z,17536
2017-06-04T13:03:01.008Z,17408
2017-06-04T13:03:41.555Z,16832
2017-06-04T13:04:22.106Z,16392
2017-06-04T13:05:02.657Z,16276
2017-06-04T13:05:43.203Z,16044
2017-06-04T13:06:23.755Z,13936
2017-06-04T13:07:04.303Z,16768
2017-06-04T13:07:44.845Z,15228
2017-06-04T13:08:25.390Z,16116
2017-06-04T13:09:05.933Z,11672
2017-06-04T13:09:46.487Z,15332
2017-06-04T13:10:27.031Z,14860
2017-06-04T13:11:07.569Z,14316
2017-06-04T13:11:48.110Z,6552
2017-06-04T13:12:28.660Z,15036
2017-06-04T13:13:09.212Z,7788
2017-06-04T13:13:49.760Z,8668
2017-06-04T13:14:30.311Z,9008
2017-06-04T13:15:10.857Z,7936
2017-06-04T13:15:51.383Z,7284
2017-06-04T13:16:31.925Z,7608
2017-06-04T13:17:12.462Z,15344
2017-06-04T13:17:53.011Z,8480
2017-06-04T13:18:33.557Z,8368
2017-06-04T13:19:14.102Z,13560
2017-06-04T13:19:54.677Z,9092
2017-06-04T13:20:35.227Z,12032
2017-06-04T13:21:15.775Z,13996
2017-06-04T13:21:56.327Z,9296
2017-06-04T13:22:36.880Z,9308
2017-06-04T13:23:17.417Z,12080
2017-06-04T13:23:58.001Z,13784
2017-06-04T13:24:38.550Z,12808
2017-06-04T13:25:19.091Z,13496
2017-06-04T13:25:59.663Z,13284
2017-06-04T13:26:40.211Z,12808
2017-06-04T13:27:20.753Z,12064
2017-06-04T13:28:01.297Z,10516
2017-06-04T13:28:41.841Z,10332
2017-06-04T13:29:22.386Z,9064
2017-06-04T13:30:02.940Z,8388
2017-06-04T13:30:43.483Z,8560
2017-06-04T13:31:24.023Z,8576
2017-06-04T13:32:04.557Z,8904
2017-06-04T13:32:45.098Z,9568
2017-06-04T13:33:25.640Z,11432
2017-06-04T13:34:06.180Z,10740
2017-06-04T13:34:46.715Z,10608
2017-06-04T13:35:27.254Z,10712
2017-06-04T13:36:07.804Z,11812
2017-06-04T13:36:48.349Z,10272
2017-06-04T13:37:28.898Z,9652
2017-06-04T13:38:09.447Z,9028
2017-06-04T13:38:49.996Z,8916
2017-06-04T13:39:30.530Z,9168
2017-06-04T13:40:11.078Z,9812
2017-06-04T13:40:51.633Z,9552
2017-06-04T13:41:32.179Z,8868
2017-06-04T13:42:12.728Z,8200
2017-06-04T13:42:53.267Z,8016
2017-06-04T13:43:33.814Z,7988
2017-06-04T13:44:14.355Z,7964
2017-06-04T13:44:54.886Z,8608
2017-06-04T13:45:35.449Z,9308
2017-06-04T13:46:15.990Z,9492
2017-06-04T13:46:56.525Z,9724
2017-06-04T13:47:37.060Z,9996
2017-06-04T13:48:17.646Z,10280
2017-06-04T13:48:58.196Z,9928
2017-06-04T13:49:38.731Z,9272
2017-06-04T13:50:19.284Z,8688
2017-06-04T13:50:59.823Z,8544
2017-06-04T13:51:40.361Z,8072
2017-06-04T13:52:20.904Z,8096
2017-06-04T13:53:01.446Z,8388
2017-06-04T13:53:41.986Z,8584
2017-06-04T13:54:22.530Z,8360
2017-06-04T13:55:03.060Z,7936
2017-06-04T13:55:43.603Z,7648
2017-06-04T13:56:24.143Z,6700
2017-06-04T13:57:04.692Z,6504
2017-06-04T13:57:45.234Z,6544
2017-06-04T13:58:25.768Z,6428
2017-06-04T13:59:06.320Z,6040
2017-06-04T13:59:46.873Z,5916
2017-06-04T14:00:27.429Z,5300
2017-06-04T14:01:07.976Z,5468
2017-06-04T14:01:48.526Z,5748
2017-06-04T14:02:29.067Z,6672
2017-06-04T14:03:09.627Z,7472
2017-06-04T14:03:50.168Z,7904
2017-06-04T14:04:30.716Z,7796
2017-06-04T14:05:11.268Z,7912
2017-06-04T14:05:51.794Z,8088
2017-06-04T14:06:32.343Z,8172
2017-06-04T14:07:12.894Z,8080
2017-06-04T14:07:53.424Z,7412
2017-06-04T14:08:33.968Z,6616
2017-06-04T14:09:14.508Z,6072
2017-06-04T14:09:55.040Z,5624
2017-06-04T14:10:35.582Z,5608
2017-06-04T14:11:16.127Z,6480
2017-06-04T14:11:56.673Z,6908
2017-06-04T14:12:37.241Z,6764
2017-06-04T14:13:17.788Z,7128
2017-06-04T14:13:58.326Z,7464
2017-06-04T14:14:38.875Z,7196
2017-06-04T14:15:19.421Z,7288
2017-06-04T14:15:59.956Z,8528
2017-06-04T14:16:40.506Z,8988
2017-06-04T14:17:21.051Z,8612
2017-06-04T14:18:01.636Z,8020
2017-06-04T14:18:42.182Z,7288
2017-06-04T14:19:22.727Z,6264
2017-06-04T14:20:03.276Z,5620
2017-06-04T14:20:43.815Z,5092
2017-06-04T14:21:24.379Z,4672
2017-06-04T14:22:07.831Z,4352
2017-06-04T14:22:48.392Z,4124
2017-06-04T14:23:28.933Z,4148
2017-06-04T14:24:09.480Z,4516
2017-06-04T14:24:50.019Z,5012
2017-06-04T14:25:30.558Z,5516
2017-06-04T14:26:11.093Z,5516
2017-06-04T14:26:51.653Z,5268
2017-06-04T14:27:32.245Z,4868
2017-06-04T14:28:12.789Z,4460
2017-06-04T14:28:53.324Z,4064
2017-06-04T14:29:33.856Z,3692
2017-06-04T14:30:14.491Z,3428
2017-06-04T14:30:55.101Z,3276
2017-06-04T14:31:35.665Z,3128
2017-06-04T14:32:16.205Z,3008
2017-06-04T14:32:57.073Z,2904
2017-06-04T14:33:37.624Z,2808
2017-06-04T14:34:18.280Z,2700
2017-06-04T14:34:58.852Z,2608
2017-06-04T14:35:39.462Z,2532
2017-06-04T14:36:19.954Z,2448
2017-06-04T14:37:00.494Z,2328
2017-06-04T14:37:41.051Z,2196
2017-06-04T14:38:21.757Z,2048
2017-06-04T14:39:02.300Z,1912
2017-06-04T14:39:43.072Z,1800
2017-06-04T14:40:23.602Z,1712
2017-06-04T14:41:04.103Z,1632
2017-06-04T14:41:44.764Z,1560
2017-06-04T14:42:25.365Z,1484
2017-06-04T14:43:05.921Z,1432
2017-06-04T14:43:46.675Z,1404
2017-06-04T14:44:27.236Z,1408
2017-06-04T14:45:07.789Z,1452
2017-06-04T14:45:48.345Z,1508
2017-06-04T14:46:28.890Z,1576
2017-06-04T14:47:09.534Z,1648
2017-06-04T14:47:50.096Z,1696
2017-06-04T14:48:30.668Z,1724
2017-06-04T14:49:11.232Z,1748
2017-06-04T14:49:51.927Z,1768
2017-06-04T14:50:32.602Z,1764
2017-06-04T14:51:13.105Z,1732
2017-06-04T14:51:53.654Z,1692
2017-06-04T14:52:34.439Z,1664
2017-06-04T14:53:14.741Z,1652
2017-06-04T14:53:55.354Z,1676
2017-06-04T14:54:35.936Z,1724
2017-06-04T14:55:16.473Z,1776
2017-06-04T14:55:57.036Z,1828
2017-06-04T14:56:37.636Z,1876
2017-06-04T14:57:18.349Z,1916
2017-06-04T14:57:59.054Z,1956
2017-06-04T14:58:39.554Z,1976
2017-06-04T14:59:20.107Z,1992
2017-06-04T15:00:00.659Z,1996
2017-06-04T15:00:41.342Z,2008
2017-06-04T15:01:21.885Z,2028
2017-06-04T15:02:02.388Z,2072
2017-06-04T15:02:43.102Z,2108
